Time;durP1;ratioP1;P1;durP2;ratioP2;P2;SDS_P1;SDS_P2;PMS_P1;PMS_P2;Temp;Humidity;BMP_temperature;BMP_pressure;BME280_temperature;BME280_humidity;BME280_pressure;Samples;Min_cycle;Max_cycle;Signal;HPM_P1;HPM_P2
2021/07/04 00:00:30;;;;;;;12.28;10.95;;;;;;;19.96;75.38;99964.23;126229;1093;113617;-85
2021/07/04 00:02:58;;;;;;;14.68;11.83;;;;;;;19.93;75.55;99964.47;126266;1093;103032;-85
2021/07/04 00:05:29;;;;;;;13.47;12.23;;;;;;;19.85;75.46;99962.31;126204;1093;114009;-85
2021/07/04 00:07:56;;;;;;;13.10;11.90;;;;;;;19.85;75.66;99960.45;126458;1093;102900;-85
2021/07/04 00:10:31;;;;;;;13.20;11.85;;;;;;;19.92;75.64;99968.13;126249;1093;114082;-86
2021/07/04 00:12:58;;;;;;;12.35;11.05;;;;;;;19.91;75.72;99953.73;126490;1093;103334;-84
2021/07/04 00:15:30;;;;;;;13.33;12.03;;;;;;;19.86;75.48;99948.68;126514;1093;103116;-85
2021/07/04 00:17:57;;;;;;;15.70;12.10;;;;;;;19.90;75.92;99959.26;126610;1092;113883;-83
2021/07/04 00:20:24;;;;;;;16.60;12.37;;;;;;;19.87;75.70;99953.12;126249;1093;103034;-83
2021/07/04 00:22:54;;;;;;;13.53;11.90;;;;;;;19.88;75.66;99956.67;126000;1093;113640;-84
2021/07/04 00:25:24;;;;;;;13.30;11.93;;;;;;;19.87;75.81;99949.53;126243;1093;103173;-85
2021/07/04 00:27:50;;;;;;;15.00;13.00;;;;;;;19.86;75.66;99958.64;126357;1093;103070;-84
2021/07/04 00:30:17;;;;;;;15.13;12.98;;;;;;;19.88;75.91;99960.22;126261;1093;113906;-84
2021/07/04 00:32:44;;;;;;;13.20;11.60;;;;;;;19.86;75.87;99955.94;126333;1093;102971;-84
2021/07/04 00:35:14;;;;;;;15.17;13.53;;;;;;;19.85;75.67;99946.09;126236;1092;113788;-85
2021/07/04 00:37:41;;;;;;;14.75;13.25;;;;;;;19.81;75.85;99942.74;126390;1093;102905;-85
2021/07/04 00:40:10;;;;;;;19.30;13.67;;;;;;;19.81;75.90;99942.74;126349;1093;103048;-85
2021/07/04 00:42:39;;;;;;;15.40;13.53;;;;;;;19.78;76.25;99936.66;126230;1093;115217;-85
2021/07/04 00:45:26;;;;;;;17.05;13.88;;;;;;;19.79;76.28;99935.69;126509;1093;101881;-85
2021/07/04 00:47:54;;;;;;;15.40;13.88;;;;;;;19.79;76.03;99936.57;126410;1092;114529;-85
2021/07/04 00:50:24;;;;;;;15.58;13.85;;;;;;;19.77;76.04;99930.40;126238;1093;102893;-85
2021/07/04 00:52:53;;;;;;;19.53;14.87;;;;;;;19.76;75.91;99933.22;126087;1093;113793;-84
2021/07/04 00:55:23;;;;;;;19.60;14.43;;;;;;;19.80;76.11;99937.42;126349;1093;102888;-87
2021/07/04 00:57:50;;;;;;;20.20;14.70;;;;;;;19.76;76.37;99936.77;126294;1093;102925;-84
2021/07/04 01:00:20;;;;;;;15.83;14.03;;;;;;;19.74;76.22;99937.85;126160;1093;113987;-84
2021/07/04 01:02:48;;;;;;;17.30;14.40;;;;;;;19.75;76.37;99931.48;126189;1093;102948;-86
2021/07/04 01:05:21;;;;;;;18.40;15.35;;;;;;;19.76;76.51;99925.96;126154;1093;114500;-84
2021/07/04 01:07:48;;;;;;;20.30;15.20;;;;;;;19.76;76.77;99927.81;126281;1094;102990;-85
2021/07/04 01:10:18;;;;;;;16.55;14.85;;;;;;;19.69;76.52;99930.09;126300;1093;103049;-85
2021/07/04 01:12:47;;;;;;;18.13;16.23;;;;;;;19.66;76.69;99933.00;126287;1093;113726;-85
2021/07/04 01:15:17;;;;;;;22.60;15.48;;;;;;;19.67;76.47;99932.03;126309;1093;102914;-85
2021/07/04 01:17:45;;;;;;;20.73;16.37;;;;;;;19.66;76.78;99933.88;126158;1094;114508;-85
2021/07/04 01:20:13;;;;;;;17.47;15.70;;;;;;;19.66;76.78;99928.48;126476;1093;103116;-85
2021/07/04 01:22:41;;;;;;;18.85;15.60;;;;;;;19.65;76.56;99934.84;126277;1093;114046;-86
2021/07/04 01:25:10;;;;;;;19.33;16.38;;;;;;;19.62;76.44;99928.79;126447;1093;102896;-86
2021/07/04 01:27:40;;;;;;;21.53;16.93;;;;;;;19.57;76.68;99928.25;126246;1096;102943;-86
2021/07/04 01:30:10;;;;;;;19.03;15.43;;;;;;;19.59;77.04;99929.88;126230;1092;114096;-86
2021/07/04 01:32:37;;;;;;;18.10;15.43;;;;;;;19.58;77.11;99938.09;126254;1093;102877;-86
2021/07/04 01:35:05;;;;;;;21.35;16.63;;;;;;;19.57;77.18;99931.84;126873;1093;114049;-86
2021/07/04 01:37:37;;;;;;;19.20;14.73;;;;;;;19.62;77.01;99931.49;126168;1093;102918;-85
2021/07/04 01:40:05;;;;;;;17.60;15.33;;;;;;;19.65;76.63;99936.70;126218;1093;103055;-86
2021/07/04 01:42:32;;;;;;;21.45;16.43;;;;;;;19.69;76.50;99930.09;126222;1093;114129;-84
2021/07/04 01:44:58;;;;;;;19.15;16.08;;;;;;;19.72;76.79;99935.27;126220;1093;103329;-85
2021/07/04 01:47:25;;;;;;;19.90;16.63;;;;;;;19.76;76.73;99930.52;125972;1094;113294;-85
2021/07/04 01:49:51;;;;;;;19.20;16.93;;;;;;;19.77;76.50;99932.25;126350;1093;102681;-84
2021/07/04 01:52:19;;;;;;;30.18;17.75;;;;;;;19.81;76.59;99936.48;126388;1092;102902;-84
2021/07/04 01:54:51;;;;;;;20.00;16.77;;;;;;;19.82;76.24;99930.08;126618;1093;114084;-83
2021/07/04 01:57:18;;;;;;;28.60;18.23;;;;;;;19.74;76.24;99936.03;126407;1093;102966;-84
2021/07/04 01:59:47;;;;;;;22.60;16.70;;;;;;;19.74;76.38;99940.55;125953;1093;114816;-84
2021/07/04 02:02:14;;;;;;;20.93;18.07;;;;;;;19.73;76.44;99942.41;126224;1092;103547;-84
2021/07/04 02:04:43;;;;;;;26.48;16.68;;;;;;;19.71;76.63;99942.52;126209;1093;114042;-85
2021/07/04 02:07:19;;;;;;;23.47;19.07;;;;;;;19.72;76.46;99935.27;126223;1093;102943;-86
2021/07/04 02:09:47;;;;;;;22.23;16.98;;;;;;;19.67;76.56;99929.33;126288;1093;102952;-86
2021/07/04 02:12:16;;;;;;;23.23;17.43;;;;;;;19.63;76.45;99933.22;126158;1093;113920;-85
2021/07/04 02:14:43;;;;;;;23.50;16.75;;;;;;;19.64;76.55;99937.66;126379;1093;102984;-86
2021/07/04 02:17:13;;;;;;;19.47;17.40;;;;;;;19.63;77.06;99926.00;126146;1093;114078;-85
2021/07/04 02:19:41;;;;;;;20.50;17.90;;;;;;;19.67;76.74;99932.03;126492;1093;103087;-85
2021/07/04 02:22:09;;;;;;;23.03;18.70;;;;;;;19.65;77.17;99931.30;127762;1093;100706;-85
2021/07/04 02:24:36;;;;;;;22.53;19.40;;;;;;;19.63;76.67;99933.22;127474;1093;115306;-84
2021/07/04 02:27:04;;;;;;;22.57;18.87;;;;;;;19.61;77.15;99932.49;127759;1092;101149;-84
2021/07/04 02:29:30;;;;;;;20.80;17.20;;;;;;;19.62;76.85;99932.38;127648;1093;114729;-84
2021/07/04 02:31:57;;;;;;;20.73;17.67;;;;;;;19.64;76.90;99943.06;127791;1093;100986;-85
2021/07/04 02:34:27;;;;;;;20.38;18.23;;;;;;;19.66;77.12;99933.88;127136;1092;102987;-84
2021/07/04 02:36:54;;;;;;;25.75;18.50;;;;;;;19.67;76.93;99941.02;126054;1093;113649;-85
2021/07/04 02:39:22;;;;;;;24.00;18.33;;;;;;;19.62;77.30;99935.08;126169;1093;103062;-85
2021/07/04 02:41:48;;;;;;;23.78;18.23;;;;;;;19.61;77.35;99937.89;126562;1093;113816;-85
2021/07/04 02:44:15;;;;;;;24.98;19.50;;;;;;;19.62;77.11;99947.70;126265;1093;103032;-85
2021/07/04 02:46:42;;;;;;;21.10;18.87;;;;;;;19.63;77.02;99938.63;126070;1093;113869;-83
2021/07/04 02:49:09;;;;;;;22.83;18.55;;;;;;;19.69;77.04;99946.30;126361;1093;102986;-84
2021/07/04 02:51:35;;;;;;;19.70;17.48;;;;;;;19.77;77.17;99948.46;126273;1093;102978;-85
2021/07/04 02:54:03;;;;;;;29.20;18.38;;;;;;;19.71;77.00;99947.04;126231;1093;114029;-85
2021/07/04 02:56:49;;;;;;;23.25;19.40;;;;;;;19.79;77.22;99950.08;126321;1093;102913;-86
2021/07/04 02:59:16;;;;;;;24.03;19.38;;;;;;;19.82;76.99;99955.28;126122;1094;114629;-86
2021/07/04 03:01:42;;;;;;;29.08;21.08;;;;;;;19.76;77.33;99957.53;126241;1093;102996;-85
2021/07/04 03:04:09;;;;;;;22.20;18.43;;;;;;;19.67;77.23;99951.82;126385;1093;102876;-86
2021/07/04 03:06:36;;;;;;;24.60;19.10;;;;;;;19.66;77.31;99946.50;126123;1093;113936;-85
2021/07/04 03:09:03;;;;;;;25.23;19.58;;;;;;;19.65;77.61;99948.35;126413;1093;102982;-85
2021/07/04 03:11:31;;;;;;;22.87;19.37;;;;;;;19.62;77.74;99953.98;126038;1093;113981;-86
2021/07/04 03:13:58;;;;;;;22.30;18.47;;;;;;;19.62;77.74;99950.40;126120;1093;103380;-85
2021/07/04 03:16:24;;;;;;;19.97;17.87;;;;;;;19.67;77.88;99951.82;126116;1094;102970;-86
2021/07/04 03:18:52;;;;;;;23.45;18.95;;;;;;;19.66;77.81;99949.20;126146;1093;113650;-85
2021/07/04 03:21:20;;;;;;;21.65;17.70;;;;;;;19.68;77.60;99952.67;126164;1093;102929;-86
2021/07/04 03:23:47;;;;;;;20.50;17.50;;;;;;;19.62;78.00;99959.39;125924;1093;114353;-86
2021/07/04 03:26:15;;;;;;;21.75;17.58;;;;;;;19.57;78.01;99957.96;126100;1092;102968;-86
2021/07/04 03:28:42;;;;;;;23.85;18.33;;;;;;;19.62;78.12;99966.61;126243;1093;114069;-86
2021/07/04 03:31:10;;;;;;;23.00;20.07;;;;;;;19.64;78.19;99964.67;126145;1093;103027;-85
2021/07/04 03:33:37;;;;;;;23.13;17.75;;;;;;;19.70;77.63;99973.20;126174;1093;102964;-86
2021/07/04 03:36:05;;;;;;;24.20;19.90;;;;;;;19.72;77.89;99971.24;126052;1093;113437;-86
2021/07/04 03:38:33;;;;;;;21.97;18.33;;;;;;;19.71;77.56;99965.95;126205;1093;102942;-86
2021/07/04 03:41:00;;;;;;;21.80;18.83;;;;;;;19.72;77.87;99973.94;126157;1092;114279;-84
2021/07/04 03:43:26;;;;;;;20.07;17.37;;;;;;;19.73;77.71;99977.53;126471;1093;102975;-87
2021/07/04 03:45:53;;;;;;;23.53;18.38;;;;;;;19.69;77.65;99973.33;126418;1093;103112;-86
2021/07/04 03:48:22;;;;;;;23.90;19.38;;;;;;;19.71;77.65;99966.84;126110;1093;113216;-86
2021/07/04 03:50:49;;;;;;;21.00;18.80;;;;;;;19.67;77.77;99964.45;126235;1093;101936;-86
2021/07/04 03:53:31;;;;;;;20.73;18.53;;;;;;;19.68;78.05;99972.44;126174;1093;113933;-85
2021/07/04 03:55:57;;;;;;;25.90;19.27;;;;;;;19.74;78.00;99971.16;126238;1093;103329;-85
2021/07/04 03:58:24;;;;;;;25.73;19.18;;;;;;;19.79;77.62;99973.52;126254;1093;102850;-85
2021/07/04 04:00:51;;;;;;;20.23;17.93;;;;;;;19.80;77.88;99975.25;126169;1093;113637;-86
2021/07/04 04:03:19;;;;;;;23.43;18.73;;;;;;;19.84;77.42;99976.79;126291;1093;103036;-86
2021/07/04 04:05:46;;;;;;;23.93;18.97;;;;;;;19.91;77.92;99978.06;126208;1093;113903;-85
2021/07/04 04:08:12;;;;;;;23.63;17.60;;;;;;;19.94;77.19;99968.87;126306;1093;102959;-86
2021/07/04 04:10:40;;;;;;;23.28;19.75;;;;;;;19.91;77.44;99977.20;126213;1093;114306;-86
2021/07/04 04:13:08;;;;;;;29.33;18.53;;;;;;;19.89;77.55;99980.03;126282;1093;102986;-85
2021/07/04 04:15:35;;;;;;;24.85;18.03;;;;;;;19.87;77.65;99977.44;126319;1093;102963;-85
2021/07/04 04:18:01;;;;;;;23.43;18.07;;;;;;;19.91;77.69;99979.91;126068;1094;113879;-86
2021/07/04 04:20:28;;;;;;;23.95;18.78;;;;;;;19.92;77.78;99985.20;126293;1093;103058;-86
2021/07/04 04:22:54;;;;;;;27.40;19.03;;;;;;;19.88;77.62;99978.30;126183;1093;114125;-85
2021/07/04 04:25:22;;;;;;;23.33;18.85;;;;;;;19.88;77.63;99973.73;126224;1093;103310;-85
2021/07/04 04:27:49;;;;;;;24.90;19.30;;;;;;;19.87;77.63;99973.86;126187;1092;102946;-85
2021/07/04 04:30:32;;;;;;;21.68;17.35;;;;;;;19.85;77.53;99979.38;126004;1093;113905;-84
2021/07/04 04:33:01;;;;;;;22.95;17.50;;;;;;;19.90;77.77;99978.17;126294;1093;102979;-84
2021/07/04 04:35:27;;;;;;;23.77;19.53;;;;;;;19.81;77.60;99972.47;126099;1093;113989;-84
2021/07/04 04:37:54;;;;;;;23.25;17.93;;;;;;;19.85;78.01;99963.16;126225;1092;103056;-86
2021/07/04 04:40:21;;;;;;;25.53;17.35;;;;;;;19.92;77.91;99971.69;126221;1092;103089;-85
2021/07/04 04:42:47;;;;;;;23.85;19.35;;;;;;;19.91;77.87;99977.20;126441;1093;113785;-86
2021/07/04 04:45:14;;;;;;;22.57;17.83;;;;;;;19.92;77.92;99968.98;126246;1093;102871;-85
2021/07/04 04:47:41;;;;;;;24.03;18.30;;;;;;;19.99;77.63;99964.00;126119;1093;113782;-86
2021/07/04 04:50:08;;;;;;;24.85;17.45;;;;;;;19.84;77.65;99964.13;126381;1093;103221;-86
2021/07/04 04:52:36;;;;;;;24.65;18.48;;;;;;;19.83;78.19;99966.95;126137;1093;114026;-86
2021/07/04 04:55:07;;;;;;;21.20;18.10;;;;;;;19.84;78.24;99971.38;126460;1093;102896;-85
2021/07/04 04:57:35;;;;;;;22.63;18.58;;;;;;;19.84;78.25;99966.83;126890;1093;101698;-86
2021/07/04 05:00:06;;;;;;;20.23;17.13;;;;;;;19.92;77.96;99974.39;126443;1093;113914;-86
2021/07/04 05:02:42;;;;;;;19.87;16.77;;;;;;;19.93;77.97;99976.13;126260;1093;102930;-86
2021/07/04 05:05:10;;;;;;;22.98;17.50;;;;;;;20.03;77.73;99965.50;126119;1093;114135;-85
2021/07/04 05:07:37;;;;;;;22.53;17.30;;;;;;;20.07;77.46;99979.66;126160;1093;103148;-86
2021/07/04 05:10:05;;;;;;;22.65;16.48;;;;;;;20.07;77.42;99980.52;126097;1093;101853;-85
2021/07/04 05:12:31;;;;;;;24.60;17.98;;;;;;;20.11;77.38;99984.72;126016;1093;114077;-85
2021/07/04 05:14:59;;;;;;;29.70;20.03;;;;;;;20.10;77.72;99982.13;126205;1092;102148;-85
2021/07/04 05:17:25;;;;;;;24.15;16.83;;;;;;;20.14;77.25;99986.34;126069;1093;113975;-84
2021/07/04 05:19:52;;;;;;;28.93;18.03;;;;;;;20.15;77.28;99988.95;126262;1093;103649;-85
2021/07/04 05:22:19;;;;;;;22.60;16.87;;;;;;;20.24;77.39;99991.95;126412;1092;103055;-83
2021/07/04 05:24:46;;;;;;;26.03;18.43;;;;;;;20.31;77.43;99991.40;126188;1093;113599;-84
2021/07/04 05:27:12;;;;;;;28.03;18.45;;;;;;;20.29;77.06;99987.93;126105;1093;102882;-85
2021/07/04 05:29:53;;;;;;;23.75;18.10;;;;;;;20.32;76.93;99984.98;126029;1093;113785;-85
2021/07/04 05:32:21;;;;;;;21.37;16.43;;;;;;;20.37;77.11;99992.78;126218;1093;102463;-85
2021/07/04 05:34:48;;;;;;;24.10;16.08;;;;;;;20.39;76.61;99990.80;126196;1093;113907;-87
2021/07/04 05:37:17;;;;;;;23.50;18.13;;;;;;;20.33;76.71;99992.13;126252;1094;102934;-86
2021/07/04 05:39:44;;;;;;;18.93;16.93;;;;;;;20.38;76.45;99997.22;126439;1093;102061;-85
2021/07/04 05:42:11;;;;;;;23.67;16.90;;;;;;;20.39;76.87;99993.51;126008;1093;114024;-85
2021/07/04 05:44:37;;;;;;;21.93;18.53;;;;;;;20.41;76.52;99998.83;126329;1093;101950;-85
2021/07/04 05:47:05;;;;;;;19.97;16.67;;;;;;;20.47;76.48;99999.24;126124;1092;113602;-85
2021/07/04 05:49:32;;;;;;;23.98;17.05;;;;;;;20.53;76.43;100001.47;126527;1093;102956;-85
2021/07/04 05:51:58;;;;;;;20.88;18.40;;;;;;;20.63;76.69;100003.48;126309;1093;102982;-84
2021/07/04 05:54:26;;;;;;;22.75;17.60;;;;;;;20.60;76.08;100007.28;126130;1094;113944;-84
2021/07/04 05:56:53;;;;;;;18.98;16.50;;;;;;;20.65;75.98;100002.40;126308;1093;102895;-84
2021/07/04 05:59:19;;;;;;;17.95;15.48;;;;;;;20.63;76.25;99995.38;126483;1093;114149;-84
2021/07/04 06:01:48;;;;;;;20.30;15.70;;;;;;;20.61;75.60;99994.64;126336;1093;103060;-84
2021/07/04 06:04:15;;;;;;;20.77;17.43;;;;;;;20.64;76.02;99997.11;126214;1094;103143;-85
2021/07/04 06:06:41;;;;;;;21.85;16.23;;;;;;;20.64;75.88;100002.52;126094;1093;113459;-85
2021/07/04 06:09:08;;;;;;;17.33;15.03;;;;;;;20.60;76.02;99998.31;126260;1093;103119;-85
2021/07/04 06:11:34;;;;;;;22.17;16.80;;;;;;;20.65;75.74;99996.13;126158;1093;113972;-85
2021/07/04 06:14:01;;;;;;;17.53;15.27;;;;;;;20.66;75.72;100000.55;126097;1093;102924;-84
2021/07/04 06:16:28;;;;;;;22.33;14.95;;;;;;;20.68;76.31;100002.16;126102;1093;103052;-84
2021/07/04 06:18:55;;;;;;;16.80;15.00;;;;;;;20.71;75.96;99988.45;126164;1093;114887;-85
2021/07/04 06:21:22;;;;;;;20.67;14.70;;;;;;;20.78;75.89;99991.55;126608;1093;102964;-85
2021/07/04 06:23:48;;;;;;;20.33;17.03;;;;;;;20.82;75.41;99998.46;126182;1093;113613;-85
2021/07/04 06:26:29;;;;;;;17.77;15.97;;;;;;;20.89;75.50;100001.56;126851;1093;102979;-86
2021/07/04 06:29:16;;;;;;;22.67;15.70;;;;;;;20.97;74.97;99993.72;126066;1093;114368;-85
2021/07/04 06:31:50;;;;;;;20.33;14.78;;;;;;;21.08;75.29;100001.01;126430;1093;101814;-84
2021/07/04 06:34:16;;;;;;;20.23;15.18;;;;;;;21.13;74.46;100001.52;126141;1094;101763;-84
2021/07/04 06:36:44;;;;;;;16.20;14.57;;;;;;;21.22;74.36;100005.38;126116;1093;114279;-84
2021/07/04 06:39:10;;;;;;;15.33;13.83;;;;;;;21.17;74.60;100005.72;126349;1093;103023;-84
2021/07/04 06:41:37;;;;;;;16.73;13.48;;;;;;;21.31;74.33;100009.20;126593;1093;114041;-83
2021/07/04 06:44:04;;;;;;;16.50;14.23;;;;;;;21.31;73.78;100010.08;126458;1092;101377;-84
2021/07/04 06:46:45;;;;;;;17.87;13.97;;;;;;;21.32;73.61;100009.08;126154;1092;114477;-85
2021/07/04 06:49:12;;;;;;;17.30;14.18;;;;;;;21.33;74.01;100005.39;126137;1093;102881;-85
2021/07/04 06:51:39;;;;;;;25.40;14.53;;;;;;;21.42;73.73;100006.53;126514;1093;103112;-85
2021/07/04 06:54:05;;;;;;;16.53;12.73;;;;;;;21.47;73.10;100006.16;126281;1093;114101;-85
2021/07/04 06:56:32;;;;;;;13.03;11.60;;;;;;;21.56;73.21;100005.47;127707;1093;101044;-85
2021/07/04 06:58:58;;;;;;;17.10;13.83;;;;;;;21.58;73.08;100002.63;127680;1093;114351;-85
2021/07/04 07:01:25;;;;;;;15.87;13.27;;;;;;;21.58;73.23;100003.52;126997;1091;102408;-84
2021/07/04 07:04:06;;;;;;;14.60;12.20;;;;;;;21.57;72.43;100007.20;126402;1093;103081;-85
2021/07/04 07:06:33;;;;;;;16.25;12.68;;;;;;;21.49;72.37;100004.20;126098;1093;113511;-85
2021/07/04 07:09:14;;;;;;;16.38;12.00;;;;;;;21.44;72.64;100012.67;126058;1095;103083;-85
2021/07/04 07:11:45;;;;;;;15.68;12.65;;;;;;;21.38;72.61;100005.05;125983;1096;114062;-85
2021/07/04 07:14:12;;;;;;;14.77;12.70;;;;;;;21.40;72.30;100013.90;126134;1093;103030;-87
2021/07/04 07:16:38;;;;;;;13.85;12.20;;;;;;;21.37;72.17;100011.44;126405;1093;114251;-85
2021/07/04 07:19:05;;;;;;;17.13;12.07;;;;;;;21.37;72.70;100012.30;126401;1093;102202;-85
2021/07/04 07:21:32;;;;;;;14.43;12.90;;;;;;;21.40;72.17;100011.19;126502;1093;102884;-85
2021/07/04 07:23:59;;;;;;;14.75;12.38;;;;;;;21.40;72.88;100007.63;125898;1093;114034;-84
2021/07/04 07:26:26;;;;;;;12.90;11.50;;;;;;;21.40;72.68;100004.92;126238;1094;104615;-84
2021/07/04 07:28:52;;;;;;;14.20;11.80;;;;;;;21.47;73.10;100008.86;126061;1093;114036;-84
2021/07/04 07:31:22;;;;;;;15.33;12.87;;;;;;;21.50;72.93;100006.79;126295;1093;102924;-84
2021/07/04 07:33:48;;;;;;;13.18;11.75;;;;;;;21.57;72.31;100011.77;126433;1093;102888;-86
2021/07/04 07:36:15;;;;;;;14.70;11.63;;;;;;;21.54;72.00;100010.16;126236;1093;113909;-86
2021/07/04 07:38:43;;;;;;;16.63;11.83;;;;;;;21.42;71.80;100014.66;126321;1093;103193;-85
2021/07/04 07:41:10;;;;;;;13.47;12.07;;;;;;;21.43;72.35;100005.52;126301;1093;114022;-85
2021/07/04 07:43:37;;;;;;;13.20;11.90;;;;;;;21.53;72.21;100009.28;126380;1093;102890;-84
2021/07/04 07:46:03;;;;;;;12.53;11.20;;;;;;;21.56;71.60;100013.59;126483;1093;102906;-85
2021/07/04 07:48:30;;;;;;;14.43;12.00;;;;;;;21.56;72.28;100008.17;126458;1093;113868;-84
2021/07/04 07:50:58;;;;;;;14.57;11.90;;;;;;;21.63;71.74;99997.72;126266;1093;103187;-86
2021/07/04 07:53:25;;;;;;;13.33;12.03;;;;;;;21.58;71.33;100002.63;126129;1093;113983;-84
2021/07/04 07:55:51;;;;;;;13.63;12.37;;;;;;;21.53;71.29;100000.27;126294;1093;103060;-84
2021/07/04 07:58:19;;;;;;;13.28;11.88;;;;;;;21.50;71.11;100001.38;126367;1094;102958;-84
2021/07/04 08:00:47;;;;;;;13.28;11.38;;;;;;;21.52;70.90;99999.38;126413;1093;114079;-86
2021/07/04 08:03:15;;;;;;;11.97;10.70;;;;;;;21.54;70.98;100000.17;126744;1093;102847;-85
2021/07/04 08:05:42;;;;;;;11.20;9.88;;;;;;;21.58;71.40;99999.92;126224;1093;114814;-85
2021/07/04 08:08:09;;;;;;;14.48;11.60;;;;;;;21.61;71.06;99988.86;126378;1094;103167;-85
2021/07/04 08:10:37;;;;;;;13.03;11.47;;;;;;;21.56;70.85;99997.34;126143;1093;115214;-85
2021/07/04 08:13:04;;;;;;;12.03;10.43;;;;;;;21.56;71.44;100001.91;126788;1092;102889;-84
2021/07/04 08:15:31;;;;;;;12.07;10.97;;;;;;;21.58;71.84;100008.94;126262;1093;102965;-85
2021/07/04 08:17:58;;;;;;;13.33;11.73;;;;;;;21.64;71.68;99994.03;127190;1093;113844;-84
2021/07/04 08:20:28;;;;;;;13.63;11.37;;;;;;;21.70;71.87;99998.97;126880;1093;102982;-84
2021/07/04 08:22:55;;;;;;;13.93;10.38;;;;;;;21.74;71.25;99994.14;126147;1093;113682;-84
2021/07/04 08:25:22;;;;;;;13.57;10.90;;;;;;;21.75;71.01;99994.02;126882;1093;103107;-84
2021/07/04 08:27:50;;;;;;;13.60;11.65;;;;;;;21.79;70.91;99994.64;126846;1093;103277;-85
2021/07/04 08:30:17;;;;;;;13.80;11.50;;;;;;;21.78;71.14;99995.63;126445;1093;114592;-84
2021/07/04 08:32:44;;;;;;;12.18;9.70;;;;;;;21.71;71.08;99996.13;126303;1093;103329;-85
2021/07/04 08:35:12;;;;;;;12.03;10.80;;;;;;;21.72;71.27;99999.69;126152;1094;114317;-85
2021/07/04 08:37:46;;;;;;;13.90;12.03;;;;;;;21.65;70.83;99998.47;126367;1093;102975;-89
2021/07/04 08:40:30;;;;;;;14.18;10.78;;;;;;;21.62;71.36;99998.69;126780;1093;101599;-86
2021/07/04 08:42:57;;;;;;;12.50;11.25;;;;;;;21.60;71.01;100003.39;126214;1093;113756;-86
2021/07/04 08:45:25;;;;;;;13.30;11.43;;;;;;;21.63;71.48;100006.73;126170;1093;102930;-85
2021/07/04 08:47:53;;;;;;;15.37;12.20;;;;;;;21.69;71.42;99995.38;126280;1093;113964;-85
2021/07/04 08:50:21;;;;;;;14.08;10.90;;;;;;;21.77;71.29;99993.92;126407;1093;101980;-85
2021/07/04 08:52:47;;;;;;;11.53;10.07;;;;;;;21.80;70.68;99996.38;126223;1093;114021;-85
2021/07/04 08:55:16;;;;;;;14.03;10.80;;;;;;;21.75;70.40;99994.02;126326;1094;103067;-86
2021/07/04 08:57:43;;;;;;;12.55;10.95;;;;;;;21.74;70.64;99992.32;126182;1093;102956;-84
2021/07/04 09:00:16;;;;;;;12.40;10.97;;;;;;;21.77;70.48;99992.06;126274;1093;113447;-84
2021/07/04 09:02:43;;;;;;;15.43;10.05;;;;;;;21.82;70.47;99989.85;126423;1093;103153;-85
2021/07/04 09:05:25;;;;;;;13.95;11.53;;;;;;;21.97;70.10;99979.61;126039;1093;113470;-88
2021/07/04 09:07:52;;;;;;;13.55;10.13;;;;;;;22.11;69.88;99989.36;126457;1093;102969;-85
2021/07/04 09:10:20;;;;;;;11.77;10.57;;;;;;;22.21;69.74;99990.30;126240;1093;102901;-85
2021/07/04 09:12:58;;;;;;;13.05;10.85;;;;;;;22.37;69.62;99978.23;126614;1093;113763;-84
2021/07/04 09:15:29;;;;;;;16.63;12.53;;;;;;;22.50;68.71;99970.80;126290;1093;102935;-84
2021/07/04 09:17:58;;;;;;;15.97;12.47;;;;;;;22.63;68.62;99970.64;126087;1092;114019;-85
2021/07/04 09:20:52;;;;;;;12.68;10.75;;;;;;;22.77;68.31;99969.47;126307;1093;103236;-85
2021/07/04 09:23:35;;;;;;;13.75;12.38;;;;;;;22.96;67.78;99970.62;126166;1093;114070;-84
2021/07/04 09:26:04;;;;;;;12.98;10.45;;;;;;;23.07;67.43;99962.40;126319;1093;102980;-84
2021/07/04 09:28:31;;;;;;;15.20;11.00;;;;;;;23.20;67.52;99965.84;126369;1093;102964;-85
2021/07/04 09:30:59;;;;;;;12.63;10.13;;;;;;;23.31;67.84;99967.63;126141;1094;114539;-84
2021/07/04 09:33:26;;;;;;;12.83;11.33;;;;;;;23.43;66.11;99967.53;126360;1093;103012;-84
2021/07/04 09:36:09;;;;;;;13.50;12.10;;;;;;;23.57;66.35;99959.03;126107;1096;113442;-83
2021/07/04 09:38:40;;;;;;;13.40;12.00;;;;;;;23.65;65.64;99951.05;126052;1096;103074;-83
2021/07/04 09:41:14;;;;;;;13.38;11.83;;;;;;;23.79;65.86;99965.28;127056;1096;114649;-83
2021/07/04 09:43:42;;;;;;;12.33;10.50;;;;;;;24.24;64.58;99950.43;126203;1096;103233;-84
2021/07/04 09:46:12;;;;;;;12.63;11.35;;;;;;;24.60;63.44;99942.59;126547;1096;102887;-83
2021/07/04 09:48:47;;;;;;;12.33;10.98;;;;;;;24.59;62.60;99943.59;126486;1095;115730;-82
2021/07/04 09:51:22;;;;;;;15.63;12.27;;;;;;;24.58;62.77;99944.59;126068;1096;103220;-85
2021/07/04 09:53:56;;;;;;;15.18;13.58;;;;;;;24.83;62.85;99946.80;125910;1100;114091;-84
2021/07/04 09:56:38;;;;;;;12.80;11.00;;;;;;;25.01;62.49;99946.06;126777;1098;102885;-84
2021/07/04 09:59:07;;;;;;;12.80;10.90;;;;;;;25.22;62.26;99940.44;125894;1098;114233;-83
2021/07/04 10:01:35;;;;;;;12.27;10.97;;;;;;;25.71;61.15;99934.84;126056;1099;102884;-83
2021/07/04 10:04:28;;;;;;;12.33;11.00;;;;;;;25.88;60.66;99935.92;126801;1098;100823;-87
2021/07/04 10:06:58;;;;;;;11.77;10.60;;;;;;;26.25;58.95;99928.73;125794;1099;115213;-88
2021/07/04 10:09:28;;;;;;;13.58;12.28;;;;;;;27.11;57.00;99919.11;126652;1098;102060;-86
2021/07/04 10:11:59;;;;;;;10.23;9.13;;;;;;;27.73;55.00;99916.27;126985;1100;114518;-84
2021/07/04 10:14:27;;;;;;;12.03;10.83;;;;;;;28.32;54.95;99910.88;127031;1096;102910;-86
2021/07/04 10:16:54;;;;;;;11.13;9.83;;;;;;;28.51;53.07;99908.81;127544;1095;113980;-85
2021/07/04 10:19:24;;;;;;;12.00;10.73;;;;;;;29.37;51.32;99906.62;126374;1097;102879;-83
2021/07/04 10:21:59;;;;;;;10.08;9.10;;;;;;;29.82;49.53;99907.00;126240;1096;103338;-85
2021/07/04 10:24:29;;;;;;;12.18;9.65;;;;;;;30.06;50.02;99895.06;126458;1097;113332;-87
2021/07/04 10:26:58;;;;;;;10.50;9.50;;;;;;;30.71;48.01;99892.95;127712;1095;101075;-86
2021/07/04 10:29:28;;;;;;;10.40;9.50;;;;;;;31.03;46.08;99893.70;127209;1096;115190;-84
2021/07/04 10:32:12;;;;;;;9.70;8.70;;;;;;;31.23;46.76;99893.17;127730;1095;100896;-85
2021/07/04 10:34:46;;;;;;;10.58;9.58;;;;;;;31.29;45.37;99895.18;127616;1096;114751;-87
2021/07/04 10:37:15;;;;;;;9.17;8.37;;;;;;;30.67;46.08;99886.95;127721;1096;100675;-84
2021/07/04 10:39:42;;;;;;;9.53;8.63;;;;;;;30.09;47.11;99880.97;127714;1093;102316;-86
2021/07/04 10:42:11;;;;;;;11.08;10.08;;;;;;;29.53;48.03;99887.35;127052;1093;115162;-84
2021/07/04 10:44:43;;;;;;;11.67;10.47;;;;;;;29.46;49.22;99886.36;126589;1093;103031;-85
2021/07/04 10:47:23;;;;;;;12.45;9.38;;;;;;;29.34;48.66;99877.65;126399;1093;113983;-86
2021/07/04 10:49:55;;;;;;;10.90;9.77;;;;;;;28.98;49.10;99875.29;126987;1093;103324;-84
2021/07/04 10:52:37;;;;;;;13.47;10.20;;;;;;;28.89;50.99;99878.22;126457;1093;103042;-84
2021/07/04 10:55:24;;;;;;;10.50;9.40;;;;;;;28.85;49.90;99878.55;127342;1093;114632;-86
2021/07/04 10:57:57;;;;;;;10.90;9.77;;;;;;;28.74;49.97;99870.69;127193;1092;101468;-85
2021/07/04 11:00:49;;;;;;;11.38;10.05;;;;;;;28.85;50.91;99867.58;126798;1093;113237;-84
2021/07/04 11:03:32;;;;;;;12.78;9.55;;;;;;;28.94;50.13;99862.96;126928;1093;100929;-86
2021/07/04 11:06:00;;;;;;;10.03;9.10;;;;;;;28.72;50.76;99864.52;126934;1093;115541;-86
2021/07/04 11:08:52;;;;;;;9.45;8.55;;;;;;;28.48;51.65;99860.73;104945;1096;15001782;-84
2021/07/04 11:11:28;;;;;;;12.47;8.93;;;;;;;28.33;50.66;99849.56;126226;1096;114038;-85